Time;durP1;ratioP1;P1;durP2;ratioP2;P2;SDS_P1;SDS_P2;PMS_P1;PMS_P2;Temp;Humidity;BMP_temperature;BMP_pressure;BME280_temperature;BME280_humidity;BME280_pressure;Samples;Min_cycle;Max_cycle;Signal;HPM_P1;HPM_P2
2022/11/10 00:01:49;;;;;;;;;;;10.30;66.00;;;;;;5020313;28;92160;-38
2022/11/10 00:04:15;;;;;;;;;;;10.30;66.10;;;;;;5019579;28;93191;-37
2022/11/10 00:06:40;;;;;;;;;;;10.40;66.00;;;;;;5022725;28;93122;-37
2022/11/10 00:09:06;;;;;;;;;;;10.40;65.90;;;;;;5019560;28;93182;-38
2022/11/10 00:11:32;;;;;;;;;;;10.30;65.90;;;;;;5019999;28;92095;-37
2022/11/10 00:16:59;;;;;;;;;;;10.30;65.90;;;;;;5019640;28;92306;-38
2022/11/10 00:19:25;;;;;;;;;;;10.30;65.90;;;;;;5020118;28;92068;-38
2022/11/10 00:21:51;;;;;;;;;;;10.30;65.80;;;;;;5019896;28;92387;-38
2022/11/10 00:24:17;;;;;;;;;;;10.30;66.00;;;;;;5019719;28;93510;-37
2022/11/10 00:26:42;;;;;;;;;;;10.30;65.90;;;;;;5022982;28;92120;-38
2022/11/10 00:29:08;;;;;;;;;;;10.30;65.90;;;;;;5019522;28;92230;-38
2022/11/10 00:31:35;;;;;;;;;;;10.20;65.90;;;;;;5017730;28;93287;-38
2022/11/10 00:34:01;;;;;;;;;;;10.20;65.90;;;;;;5019613;28;93240;-37
2022/11/10 00:36:26;;;;;;;;;;;10.20;65.70;;;;;;5018799;28;93533;-37
2022/11/10 00:38:52;;;;;;;;;;;10.20;65.70;;;;;;5019582;28;92142;-38
2022/11/10 00:41:17;;;;;;;;;;;10.20;65.80;;;;;;5019840;28;92520;-38
2022/11/10 00:43:43;;;;;;;;;;;10.20;65.80;;;;;;5018986;28;93062;-37
2022/11/10 00:46:08;;;;;;;;;;;10.20;65.70;;;;;;5019588;28;92187;-37
2022/11/10 00:48:34;;;;;;;;;;;10.20;65.70;;;;;;5022749;28;91589;-37
2022/11/10 00:50:59;;;;;;;;;;;10.20;65.70;;;;;;5019526;28;92619;-37
2022/11/10 00:53:25;;;;;;;;;;;10.20;65.90;;;;;;5019408;28;92403;-37
2022/11/10 00:55:50;;;;;;;;;;;10.10;66.30;;;;;;5018416;28;94167;-38
2022/11/10 00:58:16;;;;;;;;;;;10.20;65.70;;;;;;5018850;28;92130;-38
2022/11/10 01:00:42;;;;;;;;;;;10.10;65.70;;;;;;5019311;28;94116;-38
2022/11/10 01:03:11;;;;;;;;;;;10.10;65.70;;;;;;5018711;28;92971;-37
2022/11/10 01:05:37;;;;;;;;;;;10.10;65.70;;;;;;5019095;28;91913;-37
2022/11/10 01:08:02;;;;;;;;;;;10.10;65.70;;;;;;5019375;28;92366;-37
2022/11/10 01:10:28;;;;;;;;;;;10.10;65.70;;;;;;5022036;28;92036;-37
2022/11/10 01:12:54;;;;;;;;;;;10.10;65.70;;;;;;5019840;28;92438;-37
2022/11/10 01:15:20;;;;;;;;;;;10.10;65.70;;;;;;5018453;28;94369;-37
2022/11/10 01:17:45;;;;;;;;;;;10.00;65.70;;;;;;5019265;28;92122;-37
2022/11/10 01:20:11;;;;;;;;;;;10.10;65.60;;;;;;5018453;28;93410;-38
2022/11/10 01:22:37;;;;;;;;;;;10.10;65.60;;;;;;5018644;28;93068;-37
2022/11/10 01:25:03;;;;;;;;;;;10.00;65.60;;;;;;5019254;28;92108;-37
2022/11/10 01:27:28;;;;;;;;;;;10.00;65.60;;;;;;5019007;28;93638;-37
2022/11/10 01:29:54;;;;;;;;;;;10.00;65.60;;;;;;5018683;28;92025;-37
2022/11/10 01:32:19;;;;;;;;;;;10.00;65.50;;;;;;5022234;28;92159;-37
2022/11/10 01:34:45;;;;;;;;;;;10.00;65.60;;;;;;5017801;28;94346;-38
2022/11/10 01:37:11;;;;;;;;;;;10.00;65.60;;;;;;5019444;28;91368;-38
2022/11/10 01:39:36;;;;;;;;;;;10.00;65.50;;;;;;5019034;28;92646;-37
2022/11/10 01:42:02;;;;;;;;;;;10.00;65.60;;;;;;5018379;28;93047;-38
2022/11/10 01:44:27;;;;;;;;;;;10.00;65.40;;;;;;5018126;28;93125;-38
2022/11/10 01:46:53;;;;;;;;;;;10.00;65.50;;;;;;5018817;28;93481;-38
2022/11/10 01:49:21;;;;;;;;;;;10.00;65.60;;;;;;5018276;28;93015;-38
2022/11/10 01:52:03;;;;;;;;;;;10.00;65.50;;;;;;5018504;28;92156;-38
2022/11/10 01:54:31;;;;;;;;;;;9.90;65.50;;;;;;5021394;28;92509;-38
2022/11/10 01:56:57;;;;;;;;;;;9.90;65.50;;;;;;5018746;28;92119;-38
2022/11/10 01:59:28;;;;;;;;;;;9.90;65.60;;;;;;5018400;28;92357;-38
2022/11/10 02:01:57;;;;;;;;;;;9.90;65.60;;;;;;5018624;28;92479;-38
2022/11/10 02:04:23;;;;;;;;;;;9.80;65.50;;;;;;5018237;28;92144;-38
2022/11/10 02:06:49;;;;;;;;;;;9.80;65.50;;;;;;5018662;28;92466;-38
2022/11/10 02:09:15;;;;;;;;;;;9.90;66.10;;;;;;5017532;28;93788;-38
2022/11/10 02:11:41;;;;;;;;;;;9.90;65.50;;;;;;5022097;28;92049;-38
2022/11/10 02:14:07;;;;;;;;;;;9.80;65.50;;;;;;5022032;28;92928;-38
2022/11/10 02:16:32;;;;;;;;;;;9.80;65.50;;;;;;5024431;28;94361;-38
2022/11/10 02:19:10;;;;;;;;;;;9.80;65.50;;;;;;5021819;28;92375;-37
2022/11/10 02:21:35;;;;;;;;;;;9.80;65.50;;;;;;5021471;28;93147;-37
2022/11/10 02:24:01;;;;;;;;;;;9.70;65.50;;;;;;5021724;28;92500;-37
2022/11/10 02:26:27;;;;;;;;;;;9.80;65.60;;;;;;5022216;28;91910;-38
2022/11/10 02:28:53;;;;;;;;;;;9.80;65.70;;;;;;5021131;28;93297;-37
2022/11/10 02:31:18;;;;;;;;;;;9.70;65.60;;;;;;5021933;28;92144;-38
2022/11/10 02:33:44;;;;;;;;;;;9.70;65.60;;;;;;5020939;28;92924;-37
2022/11/10 02:36:09;;;;;;;;;;;9.70;65.50;;;;;;5023875;28;93129;-37
2022/11/10 02:38:35;;;;;;;;;;;9.80;65.60;;;;;;5021930;28;92272;-37
2022/11/10 02:41:01;;;;;;;;;;;9.70;65.50;;;;;;5020878;28;94073;-37
2022/11/10 02:43:27;;;;;;;;;;;9.70;65.60;;;;;;5021311;28;92062;-38
2022/11/10 02:45:52;;;;;;;;;;;9.70;65.60;;;;;;5021451;28;93905;-37
2022/11/10 02:48:19;;;;;;;;;;;9.70;65.60;;;;;;5020769;28;93315;-37
2022/11/10 02:50:44;;;;;;;;;;;9.70;65.60;;;;;;5021594;28;91423;-37
2022/11/10 02:53:10;;;;;;;;;;;9.70;65.60;;;;;;5021679;28;92472;-37
2022/11/10 02:55:35;;;;;;;;;;;9.60;65.60;;;;;;5020968;28;92877;-37
2022/11/10 02:58:01;;;;;;;;;;;9.70;65.70;;;;;;5023726;28;93105;-37
2022/11/10 03:00:26;;;;;;;;;;;9.70;65.60;;;;;;5020867;28;93068;-37
2022/11/10 03:02:56;;;;;;;;;;;9.60;65.50;;;;;;5021159;28;92142;-37
2022/11/10 03:05:21;;;;;;;;;;;9.60;65.50;;;;;;5020915;28;93842;-37
2022/11/10 03:08:00;;;;;;;;;;;9.60;65.60;;;;;;5020705;28;93002;-37
2022/11/10 03:10:26;;;;;;;;;;;9.60;65.60;;;;;;5021083;28;92089;-37
2022/11/10 03:12:53;;;;;;;;;;;9.60;65.60;;;;;;5021162;28;92343;-37
2022/11/10 03:15:18;;;;;;;;;;;9.50;65.60;;;;;;5020929;28;93675;-37
2022/11/10 03:17:44;;;;;;;;;;;9.50;65.70;;;;;;5021027;28;91916;-37
2022/11/10 03:20:09;;;;;;;;;;;9.50;65.80;;;;;;5023320;28;91954;-37
2022/11/10 03:22:35;;;;;;;;;;;9.50;65.80;;;;;;5020366;28;93344;-37
2022/11/10 03:25:01;;;;;;;;;;;9.50;65.80;;;;;;5021104;28;93347;-37
2022/11/10 03:27:26;;;;;;;;;;;9.50;65.80;;;;;;5020432;28;93074;-37
2022/11/10 03:29:52;;;;;;;;;;;9.50;65.70;;;;;;5020996;28;92073;-37
2022/11/10 03:32:17;;;;;;;;;;;9.50;65.70;;;;;;5020597;28;92643;-37
2022/11/10 03:34:43;;;;;;;;;;;9.50;65.60;;;;;;5019996;28;93108;-37
2022/11/10 03:37:08;;;;;;;;;;;9.50;65.70;;;;;;5020536;28;92200;-38
2022/11/10 03:39:34;;;;;;;;;;;9.50;65.70;;;;;;5021222;28;92356;-37
2022/11/10 03:41:59;;;;;;;;;;;9.50;65.70;;;;;;5023284;28;93409;-37
2022/11/10 03:44:25;;;;;;;;;;;9.50;65.80;;;;;;5020558;28;92330;-37
2022/11/10 03:46:50;;;;;;;;;;;9.40;65.80;;;;;;5019310;28;94268;-37
2022/11/10 03:49:16;;;;;;;;;;;9.40;65.80;;;;;;5020592;28;92175;-37
2022/11/10 03:51:41;;;;;;;;;;;9.40;65.80;;;;;;5020668;28;92410;-37
2022/11/10 03:54:07;;;;;;;;;;;9.40;65.80;;;;;;5019866;28;93114;-37
2022/11/10 03:56:32;;;;;;;;;;;9.40;65.80;;;;;;5020538;28;92196;-37
2022/11/10 03:58:58;;;;;;;;;;;9.40;65.80;;;;;;5020202;28;92406;-37
2022/11/10 04:01:23;;;;;;;;;;;9.30;65.80;;;;;;5019877;28;93141;-37
2022/11/10 04:03:49;;;;;;;;;;;9.40;65.80;;;;;;5023787;28;91427;-37
2022/11/10 04:08:58;;;;;;;;;;;9.30;65.80;;;;;;5020145;28;92108;-37
2022/11/10 04:16:53;;;;;;;;;;;9.30;65.90;;;;;;5020343;28;92583;-37
2022/11/10 04:19:18;;;;;;;;;;;9.30;65.90;;;;;;5019984;28;92418;-37
2022/11/10 04:21:44;;;;;;;;;;;9.30;65.90;;;;;;5019559;28;93193;-37
2022/11/10 04:24:09;;;;;;;;;;;9.30;66.00;;;;;;5019978;28;92136;-37
2022/11/10 04:26:37;;;;;;;;;;;9.30;65.90;;;;;;5022323;28;92473;-37
2022/11/10 04:29:04;;;;;;;;;;;9.20;66.10;;;;;;5020161;28;91474;-37
2022/11/10 04:31:31;;;;;;;;;;;9.20;65.90;;;;;;5019791;28;91983;-37
2022/11/10 04:33:56;;;;;;;;;;;9.20;66.00;;;;;;5018205;28;94218;-37
2022/11/10 04:36:24;;;;;;;;;;;9.20;66.00;;;;;;5018300;28;93116;-37
2022/11/10 04:38:49;;;;;;;;;;;9.20;66.00;;;;;;5019543;28;93258;-37
2022/11/10 04:41:15;;;;;;;;;;;9.20;66.10;;;;;;5019083;28;93189;-37
2022/11/10 04:43:41;;;;;;;;;;;9.20;66.00;;;;;;5019632;28;92045;-37
2022/11/10 04:46:09;;;;;;;;;;;9.20;66.10;;;;;;5022151;28;92244;-37
2022/11/10 04:48:35;;;;;;;;;;;9.20;65.90;;;;;;5019531;28;92144;-37
2022/11/10 04:51:04;;;;;;;;;;;9.20;65.90;;;;;;5018167;28;95535;-37
2022/11/10 04:53:30;;;;;;;;;;;9.20;66.00;;;;;;5019402;28;93557;-37
2022/11/10 04:55:56;;;;;;;;;;;9.20;65.90;;;;;;5019506;28;92180;-37
2022/11/10 04:58:21;;;;;;;;;;;9.10;66.00;;;;;;5019391;28;92905;-37
2022/11/10 05:00:47;;;;;;;;;;;9.10;65.90;;;;;;5018081;28;95406;-37
2022/11/10 05:03:13;;;;;;;;;;;9.10;66.00;;;;;;5019480;28;92184;-37
2022/11/10 05:05:39;;;;;;;;;;;9.10;66.10;;;;;;5019335;28;92342;-37
2022/11/10 05:08:04;;;;;;;;;;;9.00;66.10;;;;;;5021963;28;93144;-37
2022/11/10 05:10:30;;;;;;;;;;;9.10;66.20;;;;;;5018941;28;93507;-37
2022/11/10 05:12:56;;;;;;;;;;;9.10;66.20;;;;;;5018659;28;92612;-37
2022/11/10 05:15:22;;;;;;;;;;;9.10;66.20;;;;;;5019315;28;92200;-37
2022/11/10 05:17:48;;;;;;;;;;;9.00;66.10;;;;;;5019697;28;92491;-37
2022/11/10 05:20:15;;;;;;;;;;;9.00;66.10;;;;;;5018808;28;93179;-37
2022/11/10 05:22:42;;;;;;;;;;;9.00;66.00;;;;;;5019107;28;92880;-37
2022/11/10 05:25:08;;;;;;;;;;;9.00;66.00;;;;;;5018339;28;92952;-37
2022/11/10 05:27:33;;;;;;;;;;;9.00;66.10;;;;;;5018646;28;92223;-37
2022/11/10 05:29:59;;;;;;;;;;;9.00;66.30;;;;;;5022072;28;92482;-37
2022/11/10 05:32:24;;;;;;;;;;;9.00;66.20;;;;;;5018369;28;93149;-37
2022/11/10 05:34:50;;;;;;;;;;;9.00;66.10;;;;;;5018672;28;92153;-37
2022/11/10 05:37:15;;;;;;;;;;;9.00;66.10;;;;;;5019259;28;92296;-37
2022/11/10 05:39:41;;;;;;;;;;;9.00;66.00;;;;;;5018396;28;93133;-37
2022/11/10 05:42:06;;;;;;;;;;;9.00;66.00;;;;;;5019297;28;91531;-38
2022/11/10 05:44:33;;;;;;;;;;;8.90;66.20;;;;;;5021326;28;92058;-37
2022/11/10 05:46:59;;;;;;;;;;;8.90;66.30;;;;;;5021913;28;93173;-37
2022/11/10 05:49:26;;;;;;;;;;;8.90;66.30;;;;;;5021357;28;93142;-37
2022/11/10 05:51:51;;;;;;;;;;;8.90;66.30;;;;;;5024557;28;94872;-37
2022/11/10 05:54:17;;;;;;;;;;;8.90;66.20;;;;;;5022532;28;92166;-37
2022/11/10 05:56:42;;;;;;;;;;;8.90;66.20;;;;;;5022110;28;92354;-37
2022/11/10 05:59:08;;;;;;;;;;;8.90;66.10;;;;;;5021536;28;92712;-37
2022/11/10 06:01:33;;;;;;;;;;;8.90;66.20;;;;;;5022099;28;92104;-37
2022/11/10 06:03:59;;;;;;;;;;;8.90;66.10;;;;;;5022177;28;92408;-37
2022/11/10 06:06:24;;;;;;;;;;;8.90;66.10;;;;;;5021951;28;92292;-37
2022/11/10 06:08:50;;;;;;;;;;;8.90;66.10;;;;;;5021928;28;92331;-38
2022/11/10 06:11:16;;;;;;;;;;;8.90;66.00;;;;;;5021882;28;92347;-37
2022/11/10 06:13:41;;;;;;;;;;;8.90;65.90;;;;;;5024080;28;94056;-37
2022/11/10 06:16:07;;;;;;;;;;;8.90;66.10;;;;;;5022003;28;93395;-37
2022/11/10 06:18:32;;;;;;;;;;;8.80;66.20;;;;;;5021332;28;93125;-38
2022/11/10 06:20:58;;;;;;;;;;;8.80;66.20;;;;;;5021971;28;92167;-37
2022/11/10 06:23:23;;;;;;;;;;;8.90;66.10;;;;;;5022093;28;92290;-37
2022/11/10 06:25:49;;;;;;;;;;;8.90;66.20;;;;;;5021190;28;92213;-37
2022/11/10 06:28:14;;;;;;;;;;;8.80;66.20;;;;;;5021776;28;92621;-37
2022/11/10 06:30:40;;;;;;;;;;;8.80;66.30;;;;;;5022241;28;92240;-37
2022/11/10 06:33:05;;;;;;;;;;;8.80;66.40;;;;;;5021259;28;93259;-37
2022/11/10 06:35:31;;;;;;;;;;;8.80;66.30;;;;;;5024236;28;91967;-37
2022/11/10 06:37:57;;;;;;;;;;;8.80;66.20;;;;;;5020401;28;94244;-37
2022/11/10 06:40:23;;;;;;;;;;;8.80;66.30;;;;;;5021471;28;92090;-37
2022/11/10 06:42:48;;;;;;;;;;;8.80;66.20;;;;;;5021872;28;92402;-37
2022/11/10 06:45:14;;;;;;;;;;;8.80;66.20;;;;;;5020952;28;93204;-37
2022/11/10 06:47:39;;;;;;;;;;;8.80;66.30;;;;;;5021527;28;92102;-37
2022/11/10 06:50:05;;;;;;;;;;;8.80;66.30;;;;;;5021461;28;92454;-37
2022/11/10 06:52:31;;;;;;;;;;;8.80;66.30;;;;;;5020950;28;93370;-37
2022/11/10 06:54:57;;;;;;;;;;;8.70;66.30;;;;;;5024565;28;91391;-37
2022/11/10 06:57:22;;;;;;;;;;;8.80;66.30;;;;;;5020473;28;93170;-37
2022/11/10 06:59:48;;;;;;;;;;;8.70;66.60;;;;;;5020961;28;92275;-38
2022/11/10 07:02:14;;;;;;;;;;;8.70;66.40;;;;;;5020821;28;93309;-37
2022/11/10 07:04:39;;;;;;;;;;;8.70;66.20;;;;;;5020386;28;93900;-37
2022/11/10 07:07:05;;;;;;;;;;;8.70;66.40;;;;;;5020910;28;92236;-37
2022/11/10 07:09:30;;;;;;;;;;;8.70;66.50;;;;;;5021263;28;92502;-37
2022/11/10 07:11:56;;;;;;;;;;;8.70;66.60;;;;;;5020351;28;93262;-37
2022/11/10 07:14:21;;;;;;;;;;;8.70;66.60;;;;;;5021442;28;92297;-37
2022/11/10 07:16:47;;;;;;;;;;;8.70;66.50;;;;;;5023795;28;92454;-37
2022/11/10 07:19:12;;;;;;;;;;;8.70;66.70;;;;;;5021435;28;91408;-37
2022/11/10 07:21:39;;;;;;;;;;;8.70;66.60;;;;;;5021128;28;92292;-37
2022/11/10 07:24:05;;;;;;;;;;;8.70;66.90;;;;;;5020167;28;93091;-37
2022/11/10 07:26:31;;;;;;;;;;;8.70;66.50;;;;;;5019978;28;93202;-37
2022/11/10 07:28:56;;;;;;;;;;;8.70;66.50;;;;;;5021021;28;93286;-37
2022/11/10 07:31:21;;;;;;;;;;;8.70;66.80;;;;;;5020419;28;93004;-37
2022/11/10 07:33:47;;;;;;;;;;;8.70;66.90;;;;;;5020742;28;92133;-37
2022/11/10 07:36:12;;;;;;;;;;;8.70;66.80;;;;;;5020165;28;92346;-37
2022/11/10 07:38:38;;;;;;;;;;;8.70;66.70;;;;;;5023406;28;92586;-37
2022/11/10 07:41:04;;;;;;;;;;;8.60;66.90;;;;;;5020518;28;92428;-37
2022/11/10 07:43:29;;;;;;;;;;;8.70;67.00;;;;;;5020644;28;92153;-37
2022/11/10 07:45:54;;;;;;;;;;;8.60;66.80;;;;;;5020777;28;92119;-37
2022/11/10 07:48:20;;;;;;;;;;;8.60;67.20;;;;;;5020659;28;91976;-37
2022/11/10 07:50:45;;;;;;;;;;;8.60;66.90;;;;;;5019409;28;93701;-38
2022/11/10 07:53:12;;;;;;;;;;;8.60;67.10;;;;;;5020631;28;92185;-37
2022/11/10 07:55:38;;;;;;;;;;;8.60;67.00;;;;;;5020413;28;92336;-37
2022/11/10 07:58:04;;;;;;;;;;;8.60;66.90;;;;;;5019429;28;94632;-37
2022/11/10 08:00:30;;;;;;;;;;;8.60;67.00;;;;;;5023457;28;92232;-37
2022/11/10 08:03:25;;;;;;;;;;;8.60;66.90;;;;;;5019880;28;93272;-37
2022/11/10 08:05:51;;;;;;;;;;;8.60;67.20;;;;;;5010758;28;92399;-37
2022/11/10 08:08:16;;;;;;;;;;;8.60;67.10;;;;;;5019293;28;92349;-37
2022/11/10 08:10:42;;;;;;;;;;;8.50;67.50;;;;;;5019732;28;93000;-37
2022/11/10 08:13:09;;;;;;;;;;;8.50;67.20;;;;;;5020365;28;92133;-37
2022/11/10 08:15:35;;;;;;;;;;;8.50;67.40;;;;;;5019543;28;92993;-37
2022/11/10 08:18:02;;;;;;;;;;;8.50;67.40;;;;;;5019450;28;94583;-37
2022/11/10 08:20:28;;;;;;;;;;;8.50;67.10;;;;;;5019869;28;92058;-37
2022/11/10 08:23:04;;;;;;;;;;;8.50;67.30;;;;;;5022391;28;92121;-37
2022/11/10 08:25:31;;;;;;;;;;;8.50;67.40;;;;;;5019802;28;92351;-37
2022/11/10 08:28:01;;;;;;;;;;;8.50;67.30;;;;;;5019905;28;92728;-38
2022/11/10 08:30:27;;;;;;;;;;;8.50;67.40;;;;;;5019386;28;93037;-37
2022/11/10 08:32:56;;;;;;;;;;;8.50;67.50;;;;;;5020145;28;91612;-38
2022/11/10 08:35:23;;;;;;;;;;;8.50;67.40;;;;;;5018979;28;92239;-37
2022/11/10 08:37:48;;;;;;;;;;;8.50;67.40;;;;;;5019227;28;93025;-37
2022/11/10 08:40:14;;;;;;;;;;;8.40;67.40;;;;;;5018951;28;93059;-37
2022/11/10 08:42:40;;;;;;;;;;;8.50;67.40;;;;;;5022203;28;93231;-37
2022/11/10 08:45:05;;;;;;;;;;;8.50;67.60;;;;;;5019728;28;92188;-37
2022/11/10 08:47:31;;;;;;;;;;;8.40;67.50;;;;;;5019846;28;92491;-37
2022/11/10 08:49:57;;;;;;;;;;;8.40;67.60;;;;;;5018987;28;93133;-38
2022/11/10 08:52:22;;;;;;;;;;;8.40;67.60;;;;;;5019729;28;92067;-37
2022/11/10 08:54:48;;;;;;;;;;;8.40;67.60;;;;;;5019536;28;92508;-37
2022/11/10 08:57:13;;;;;;;;;;;8.40;67.70;;;;;;5019454;28;92390;-37
2022/11/10 08:59:38;;;;;;;;;;;8.40;67.70;;;;;;5019229;28;92292;-37
2022/11/10 09:02:04;;;;;;;;;;;8.40;67.70;;;;;;5019491;28;92371;-37
2022/11/10 09:04:30;;;;;;;;;;;8.40;67.70;;;;;;5021384;28;93934;-37
2022/11/10 09:06:56;;;;;;;;;;;8.40;67.70;;;;;;5019315;28;93396;-37
2022/11/10 09:09:23;;;;;;;;;;;8.40;67.70;;;;;;5018583;28;94659;-37
2022/11/10 09:11:48;;;;;;;;;;;8.40;67.80;;;;;;5019313;28;92049;-37
2022/11/10 09:14:14;;;;;;;;;;;8.40;68.00;;;;;;5019359;28;92394;-38
2022/11/10 09:16:39;;;;;;;;;;;8.40;68.00;;;;;;5018603;28;92706;-38
2022/11/10 09:19:05;;;;;;;;;;;8.40;68.00;;;;;;5018897;28;92188;-37
2022/11/10 09:21:30;;;;;;;;;;;8.40;68.00;;;;;;5019429;28;92286;-37
2022/11/10 09:23:56;;;;;;;;;;;8.40;67.90;;;;;;5018663;28;93093;-37
2022/11/10 09:26:21;;;;;;;;;;;8.40;68.00;;;;;;5022203;28;92242;-37
2022/11/10 09:28:48;;;;;;;;;;;8.40;68.20;;;;;;5017896;28;93957;-38
2022/11/10 09:31:13;;;;;;;;;;;8.40;68.10;;;;;;5019140;28;92131;-37
2022/11/10 09:33:39;;;;;;;;;;;8.40;68.10;;;;;;5019007;28;92528;-37
2022/11/10 09:36:05;;;;;;;;;;;8.40;68.10;;;;;;5017991;28;93101;-37
2022/11/10 09:38:31;;;;;;;;;;;8.40;68.20;;;;;;5018628;28;92213;-37
2022/11/10 09:41:04;;;;;;;;;;;8.40;68.20;;;;;;5018926;28;92379;-37
2022/11/10 09:43:29;;;;;;;;;;;8.40;68.20;;;;;;5018088;28;92958;-37
2022/11/10 09:45:56;;;;;;;;;;;8.40;68.30;;;;;;5019079;28;91452;-37
2022/11/10 09:48:26;;;;;;;;;;;8.40;68.30;;;;;;5021314;28;92125;-37
2022/11/10 09:50:53;;;;;;;;;;;8.40;68.30;;;;;;5018474;28;92131;-37
2022/11/10 09:53:21;;;;;;;;;;;8.40;68.40;;;;;;5017717;28;93751;-38
2022/11/10 09:55:48;;;;;;;;;;;8.40;68.40;;;;;;5017687;28;94367;-37
2022/11/10 09:58:14;;;;;;;;;;;8.40;68.40;;;;;;5018325;28;92123;-37
2022/11/10 10:00:48;;;;;;;;;;;8.40;68.40;;;;;;5018453;28;92739;-37
2022/11/10 10:03:16;;;;;;;;;;;8.40;68.40;;;;;;5017563;28;93222;-37
2022/11/10 10:05:50;;;;;;;;;;;8.40;69.00;;;;;;5017750;28;92103;-37
2022/11/10 10:08:16;;;;;;;;;;;8.40;68.50;;;;;;5018752;28;93059;-38
2022/11/10 10:10:59;;;;;;;;;;;8.40;68.40;;;;;;5021946;28;92427;-38
2022/11/10 10:13:30;;;;;;;;;;;8.40;68.50;;;;;;5018708;28;92174;-37
2022/11/10 10:16:09;;;;;;;;;;;8.40;68.50;;;;;;5017907;28;92427;-38
2022/11/10 10:18:53;;;;;;;;;;;8.40;68.40;;;;;;5017943;28;92988;-37
2022/11/10 10:21:37;;;;;;;;;;;8.50;68.30;;;;;;5018466;28;93361;-37
2022/11/10 10:24:03;;;;;;;;;;;8.50;68.30;;;;;;5017722;28;93032;-37
2022/11/10 10:26:30;;;;;;;;;;;8.50;68.20;;;;;;5018341;28;92115;-37
2022/11/10 10:28:57;;;;;;;;;;;8.50;68.30;;;;;;5018325;28;92324;-37
2022/11/10 10:31:29;;;;;;;;;;;8.50;68.40;;;;;;5019562;28;93081;-37
2022/11/10 10:33:54;;;;;;;;;;;8.50;68.40;;;;;;5024536;28;92141;-37
2022/11/10 10:36:24;;;;;;;;;;;8.50;68.30;;;;;;5021395;28;92394;-37
2022/11/10 10:39:00;;;;;;;;;;;8.50;68.50;;;;;;5021325;28;92184;-37
2022/11/10 10:41:27;;;;;;;;;;;8.50;68.40;;;;;;5021707;28;92022;-37
2022/11/10 10:43:57;;;;;;;;;;;8.50;68.40;;;;;;5020435;28;93763;-38
2022/11/10 10:46:26;;;;;;;;;;;8.50;68.50;;;;;;5021202;28;92319;-37
2022/11/10 10:49:12;;;;;;;;;;;8.50;68.50;;;;;;5021427;28;92335;-38
2022/11/10 10:51:38;;;;;;;;;;;8.50;68.60;;;;;;5020569;28;97101;-38
2022/11/10 10:54:03;;;;;;;;;;;8.50;68.70;;;;;;5024522;28;92137;-38
2022/11/10 10:56:31;;;;;;;;;;;8.50;68.70;;;;;;5020838;28;93493;-37
2022/11/10 10:59:01;;;;;;;;;;;8.50;68.50;;;;;;5020823;28;92109;-37
2022/11/10 11:01:36;;;;;;;;;;;8.50;68.90;;;;;;5021869;28;92968;-37
2022/11/10 11:04:04;;;;;;;;;;;8.50;68.90;;;;;;5020537;28;92236;-38
2022/11/10 11:06:31;;;;;;;;;;;8.50;68.70;;;;;;5021103;28;91835;-37
2022/11/10 11:08:56;;;;;;;;;;;8.40;68.90;;;;;;5020638;28;92943;-37
2022/11/10 11:11:24;;;;;;;;;;;8.50;69.00;;;;;;5020534;28;93117;-37
2022/11/10 11:13:49;;;;;;;;;;;8.50;68.90;;;;;;5021177;28;92103;-37
2022/11/10 11:16:15;;;;;;;;;;;8.50;69.10;;;;;;5023625;28;91982;-37
2022/11/10 11:18:40;;;;;;;;;;;8.50;69.40;;;;;;5021084;28;92038;-37
2022/11/10 11:21:18;;;;;;;;;;;8.50;69.40;;;;;;5021269;28;92548;-37
2022/11/10 11:23:58;;;;;;;;;;;8.50;69.20;;;;;;5020312;28;92861;-37
2022/11/10 11:26:29;;;;;;;;;;;8.50;69.20;;;;;;5021590;28;91252;-38
2022/11/10 11:29:01;;;;;;;;;;;8.50;69.20;;;;;;5020744;28;92175;-38
2022/11/10 11:31:26;;;;;;;;;;;8.50;69.30;;;;;;5020447;28;93113;-38
2022/11/10 11:34:00;;;;;;;;;;;8.50;69.40;;;;;;5020430;28;93294;-38
2022/11/10 11:36:26;;;;;;;;;;;8.50;69.60;;;;;;5019996;28;94784;-37
2022/11/10 11:39:04;;;;;;;;;;;8.50;69.60;;;;;;5023360;28;93087;-37
2022/11/10 11:41:35;;;;;;;;;;;8.50;69.60;;;;;;5020295;28;92436;-37
2022/11/10 11:44:06;;;;;;;;;;;8.50;70.20;;;;;;5019938;28;93239;-37
2022/11/10 11:46:41;;;;;;;;;;;8.50;69.60;;;;;;5020590;28;92437;-37
2022/11/10 11:49:15;;;;;;;;;;;8.50;69.70;;;;;;5020757;28;92353;-38
2022/11/10 11:51:43;;;;;;;;;;;8.50;69.80;;;;;;5020619;28;92206;-38
2022/11/10 11:54:19;;;;;;;;;;;8.50;69.90;;;;;;5020320;28;92126;-38
2022/11/10 11:56:46;;;;;;;;;;;8.50;70.00;;;;;;5020662;28;92390;-38
2022/11/10 11:59:24;;;;;;;;;;;8.50;70.10;;;;;;5018993;28;93950;-38
2022/11/10 12:01:52;;;;;;;;;;;8.50;70.10;;;;;;5023576;28;92386;-38
2022/11/10 12:04:30;;;;;;;;;;;8.50;70.50;;;;;;5019560;28;93173;-38
2022/11/10 12:07:04;;;;;;;;;;;8.50;70.60;;;;;;5020295;28;92185;-38
2022/11/10 12:09:33;;;;;;;;;;;8.50;70.70;;;;;;5020525;28;93018;-38
2022/11/10 12:12:07;;;;;;;;;;;8.50;70.60;;;;;;5019718;28;93304;-38
2022/11/10 12:14:39;;;;;;;;;;;8.60;71.10;;;;;;5020172;28;92162;-38
2022/11/10 12:17:04;;;;;;;;;;;8.50;71.00;;;;;;5020540;28;92458;-38
2022/11/10 12:19:39;;;;;;;;;;;8.50;71.10;;;;;;5019668;28;93166;-38
2022/11/10 12:22:23;;;;;;;;;;;8.50;71.20;;;;;;5020216;28;92249;-38
2022/11/10 12:25:01;;;;;;;;;;;8.50;71.40;;;;;;5021918;28;93142;-38
2022/11/10 12:27:29;;;;;;;;;;;8.60;71.30;;;;;;5019909;28;92156;-38
2022/11/10 12:30:08;;;;;;;;;;;8.60;71.50;;;;;;5019838;28;92437;-38
2022/11/10 12:32:38;;;;;;;;;;;8.60;71.60;;;;;;5019216;28;94447;-38
2022/11/10 12:35:04;;;;;;;;;;;8.60;71.70;;;;;;5019305;28;92107;-37
2022/11/10 12:37:36;;;;;;;;;;;8.60;71.80;;;;;;5019795;28;92056;-37
2022/11/10 12:40:04;;;;;;;;;;;8.60;72.00;;;;;;5018695;28;93113;-38
2022/11/10 12:42:32;;;;;;;;;;;8.60;72.10;;;;;;5020065;28;91423;-38
2022/11/10 12:45:05;;;;;;;;;;;8.60;72.10;;;;;;5019448;28;93188;-38
2022/11/10 12:47:42;;;;;;;;;;;8.60;72.20;;;;;;5021863;28;95801;-38
2022/11/10 12:50:23;;;;;;;;;;;8.60;72.30;;;;;;5019142;28;92942;-38
2022/11/10 12:53:10;;;;;;;;;;;8.60;72.40;;;;;;5018565;28;93050;-38
2022/11/10 12:55:39;;;;;;;;;;;8.60;72.20;;;;;;5019736;28;91932;-38
2022/11/10 12:58:04;;;;;;;;;;;8.60;72.60;;;;;;5019368;28;93448;-38
2022/11/10 13:00:31;;;;;;;;;;;8.60;72.50;;;;;;5018953;28;93091;-38
2022/11/10 13:02:58;;;;;;;;;;;8.60;72.60;;;;;;5019007;28;92103;-38
2022/11/10 13:05:32;;;;;;;;;;;8.60;72.50;;;;;;5019230;28;92491;-37
2022/11/10 13:08:26;;;;;;;;;;;8.60;72.80;;;;;;5022405;28;92530;-37
2022/11/10 13:10:53;;;;;;;;;;;8.70;72.70;;;;;;5016886;28;93349;-38
2022/11/10 13:13:19;;;;;;;;;;;8.70;72.80;;;;;;5018575;28;93279;-38
2022/11/10 13:15:45;;;;;;;;;;;8.70;72.80;;;;;;5017318;28;93142;-38
2022/11/10 13:18:21;;;;;;;;;;;8.60;72.60;;;;;;5019304;28;92291;-38
2022/11/10 13:20:50;;;;;;;;;;;8.70;72.70;;;;;;5018584;28;94642;-38
2022/11/10 13:23:39;;;;;;;;;;;8.70;72.60;;;;;;5019008;28;92161;-37
2022/11/10 13:26:25;;;;;;;;;;;8.70;72.70;;;;;;4998761;28;92390;-38
2022/11/10 13:28:54;;;;;;;;;;;8.70;73.20;;;;;;5010226;28;93595;-38
2022/11/10 13:31:26;;;;;;;;;;;8.70;72.50;;;;;;5021950;28;93301;-38
2022/11/10 13:34:07;;;;;;;;;;;8.70;72.80;;;;;;5019194;28;92345;-37
2022/11/10 13:36:40;;;;;;;;;;;8.70;72.90;;;;;;5018096;28;92184;-38
2022/11/10 13:39:17;;;;;;;;;;;8.70;73.00;;;;;;5019044;28;92298;-38
2022/11/10 13:41:47;;;;;;;;;;;8.70;73.00;;;;;;5017702;28;94127;-38
2022/11/10 13:44:29;;;;;;;;;;;8.70;72.80;;;;;;5018736;28;92158;-38
2022/11/10 13:46:57;;;;;;;;;;;8.70;72.80;;;;;;5018502;28;93990;-38
2022/11/10 13:49:31;;;;;;;;;;;8.70;72.90;;;;;;5018523;28;92546;-38
2022/11/10 13:52:08;;;;;;;;;;;8.70;72.90;;;;;;5019051;28;93129;-38
2022/11/10 13:54:34;;;;;;;;;;;8.70;72.90;;;;;;5021335;28;92400;-38
2022/11/10 13:57:05;;;;;;;;;;;8.70;72.90;;;;;;5018853;28;92149;-38
2022/11/10 13:59:32;;;;;;;;;;;8.70;73.00;;;;;;5018879;28;92284;-38
2022/11/10 14:02:16;;;;;;;;;;;8.80;73.00;;;;;;5018158;28;93164;-38
2022/11/10 14:04:42;;;;;;;;;;;8.70;73.20;;;;;;5019458;28;92323;-38
2022/11/10 14:07:15;;;;;;;;;;;8.80;73.20;;;;;;5021612;28;92944;-38
2022/11/10 14:09:51;;;;;;;;;;;8.80;73.10;;;;;;5021658;28;93040;-38
2022/11/10 14:12:26;;;;;;;;;;;8.80;73.10;;;;;;5022301;28;92031;-38
2022/11/10 14:14:53;;;;;;;;;;;8.80;73.10;;;;;;5022293;28;92249;-38
2022/11/10 14:17:24;;;;;;;;;;;8.80;73.20;;;;;;5024483;28;93330;-38
2022/11/10 14:19:50;;;;;;;;;;;8.80;73.00;;;;;;5022005;28;92495;-38
2022/11/10 14:22:20;;;;;;;;;;;8.80;73.10;;;;;;5021001;28;94571;-38
2022/11/10 14:25:04;;;;;;;;;;;8.80;73.30;;;;;;5021899;28;91333;-38
2022/11/10 14:27:32;;;;;;;;;;;8.80;73.10;;;;;;5021906;28;92108;-38
2022/11/10 14:30:06;;;;;;;;;;;8.80;73.00;;;;;;5021367;28;93124;-37
2022/11/10 14:32:31;;;;;;;;;;;8.80;73.00;;;;;;5020887;28;93061;-38
2022/11/10 14:34:57;;;;;;;;;;;8.80;73.00;;;;;;5020814;28;93333;-38
2022/11/10 14:37:24;;;;;;;;;;;8.80;73.10;;;;;;5021347;28;92278;-38
2022/11/10 14:39:54;;;;;;;;;;;8.90;73.10;;;;;;5024809;28;92136;-38
2022/11/10 14:42:24;;;;;;;;;;;8.90;73.20;;;;;;5021253;28;94363;-38
2022/11/10 14:45:03;;;;;;;;;;;8.90;73.00;;;;;;5021118;28;92776;-38